Time;durP1;ratioP1;P1;durP2;ratioP2;P2;SDS_P1;SDS_P2;PMS_P1;PMS_P2;Temp;Humidity;BMP_temperature;BMP_pressure;BME280_temperature;BME280_humidity;BME280_pressure;Samples;Min_cycle;Max_cycle;Signal;HPM_P1;HPM_P2
2023/08/01 03:19:08;;;;;;;;;2.67;2.67;;;;;17.00;83.83;97433.31;4827099;28;104188;-73
2023/08/01 03:21:35;;;;;;;;;1.00;1.00;;;;;17.01;82.81;97437.72;4962266;28;102110;-74
2023/08/01 03:24:03;;;;;;;;;1.67;1.00;;;;;16.94;83.15;97416.09;4951821;28;102023;-73
2023/08/01 03:26:33;;;;;;;;;1.00;1.00;;;;;17.04;83.06;97418.03;4975292;28;104593;-72
2023/08/01 03:29:00;;;;;;;;;1.67;1.67;;;;;17.03;82.54;97410.94;4971714;28;103579;-73
2023/08/01 03:31:28;;;;;;;;;1.67;1.67;;;;;17.02;82.69;97412.84;4977924;28;102015;-73
2023/08/01 03:33:58;;;;;;;;;2.67;1.33;;;;;16.97;82.26;97382.81;4976078;28;102479;-73
2023/08/01 03:36:28;;;;;;;;;2.00;2.00;;;;;17.07;82.66;97403.81;4975465;28;104179;-73
2023/08/01 03:38:55;;;;;;;;;2.00;2.00;;;;;17.07;82.11;97392.91;4979966;28;102177;-73
2023/08/01 03:41:50;;;;;;;;;3.00;2.00;;;;;17.23;82.58;97406.31;4975351;28;102996;-74
2023/08/01 03:44:20;;;;;;;;;2.00;2.00;;;;;17.17;81.71;97388.28;4954936;28;102363;-73
2023/08/01 03:46:47;;;;;;;;;2.00;2.00;;;;;17.25;81.79;97392.38;4970930;28;103976;-73
2023/08/01 03:49:18;;;;;;;;;2.00;1.00;;;;;17.27;82.34;97392.94;4970065;28;102675;-73
2023/08/01 03:51:45;;;;;;;;;1.33;1.33;;;;;17.26;82.14;97385.81;4956919;28;102950;-73
2023/08/01 03:54:25;;;;;;;;;2.00;1.00;;;;;17.39;80.82;97401.66;4972643;28;102429;-74
2023/08/01 03:56:52;;;;;;;;;3.00;3.00;;;;;17.36;81.76;97391.28;4955890;28;103959;-73
2023/08/01 13:38:08;;;;;;;;;1.33;1.33;;;;;18.59;100.00;97186.22;4863287;28;102011;-72
2023/08/01 13:40:35;;;;;;;;;1.67;1.67;;;;;18.59;100.00;97199.91;4966386;28;103467;-72
2023/08/01 13:43:02;;;;;;;;;2.00;1.00;;;;;18.54;100.00;97191.75;4966363;28;104086;-72
2023/08/01 13:45:31;;;;;;;;;2.00;2.00;;;;;18.57;100.00;97193.91;4968741;28;101940;-72
2023/08/01 13:47:58;;;;;;;;;3.33;2.00;;;;;18.54;100.00;97182.72;4975139;28;102755;-72
2023/08/01 13:50:28;;;;;;;;;2.00;2.00;;;;;18.53;100.00;97181.88;4953742;28;102419;-72
2023/08/01 13:52:55;;;;;;;;;1.00;0.00;;;;;18.54;100.00;97191.75;4973351;28;105476;-72
2023/08/01 13:55:22;;;;;;;;;2.00;2.00;;;;;18.40;100.00;97171.56;4950033;28;102909;-73
2023/08/01 13:57:49;;;;;;;;;2.33;2.00;;;;;18.45;100.00;97176.19;4974811;28;102152;-73
2023/08/01 14:00:17;;;;;;;;;2.00;2.00;;;;;18.31;100.00;97161.50;4956181;28;102401;-73
2023/08/01 14:02:44;;;;;;;;;2.00;2.00;;;;;18.33;100.00;97160.13;4978732;28;104208;-72
2023/08/01 14:05:11;;;;;;;;;2.67;2.00;;;;;18.34;100.00;97158.19;4953164;28;102535;-73
2023/08/01 14:07:38;;;;;;;;;3.00;2.33;;;;;18.27;100.00;97147.59;4975574;28;103372;-73
2023/08/01 14:10:10;;;;;;;;;1.00;1.00;;;;;18.32;100.00;97158.50;4981000;28;102180;-72
2023/08/01 14:12:38;;;;;;;;;1.67;1.00;;;;;18.32;100.00;97153.03;4944244;28;104176;-71
2023/08/01 14:15:05;;;;;;;;;3.00;2.00;;;;;18.27;100.00;97153.06;4971615;28;101847;-71
2023/08/01 14:17:33;;;;;;;;;2.00;2.00;;;;;18.27;100.00;97153.06;4969866;28;103528;-71
2023/08/01 14:20:09;;;;;;;;;1.33;1.33;;;;;18.27;100.00;97147.59;4952414;28;102151;-72
2023/08/01 14:22:54;;;;;;;;;1.00;1.00;;;;;18.25;100.00;97145.13;4973509;28;103087;-73
2023/08/01 14:25:37;;;;;;;;;1.33;1.00;;;;;18.19;100.00;97138.06;4972379;28;102378;-72
2023/08/01 14:28:23;;;;;;;;;1.00;1.00;;;;;18.20;100.00;97147.09;4946911;28;102697;-72
2023/08/01 14:31:08;;;;;;;;;2.00;2.00;;;;;17.65;100.00;97072.53;4969862;28;103187;-72
2023/08/01 14:33:52;;;;;;;;;1.00;1.00;;;;;18.25;100.00;97163.47;4971839;28;102917;-72
2023/08/01 14:36:34;;;;;;;;;2.00;1.00;;;;;18.28;100.00;97155.50;4967267;28;101934;-72
2023/08/01 14:39:25;;;;;;;;;1.00;1.00;;;;;18.20;100.00;97147.91;4992000;28;102479;-73
2023/08/01 14:42:08;;;;;;;;;1.00;1.00;;;;;18.25;100.00;97164.28;4996337;28;101961;-73
2023/08/01 14:44:51;;;;;;;;;2.67;1.00;;;;;18.29;100.00;97168.09;4989032;28;103614;-72
2023/08/01 14:47:30;;;;;;;;;0.33;0.00;;;;;18.26;100.00;97167.84;4995390;28;102214;-72
2023/08/01 14:49:57;;;;;;;;;1.00;1.00;;;;;18.15;100.00;97164.34;4986904;28;102236;-72
2023/08/01 14:52:24;;;;;;;;;1.00;1.00;;;;;18.12;100.00;97164.13;4991616;28;102392;-72
2023/08/01 14:54:56;;;;;;;;;1.00;1.00;;;;;18.10;100.00;97153.44;4971702;28;103557;-72
2023/08/01 14:57:23;;;;;;;;;0.33;0.00;;;;;18.08;100.00;97152.09;4988116;28;101984;-73
2023/08/01 14:59:51;;;;;;;;;1.00;0.33;;;;;17.96;100.00;97152.47;4970064;28;102339;-73
2023/08/01 15:02:19;;;;;;;;;1.00;1.00;;;;;17.95;100.00;97148.09;4975326;28;102634;-72
2023/08/01 15:04:46;;;;;;;;;0.67;0.00;;;;;18.05;100.00;97158.97;4995524;28;104026;-73
2023/08/01 15:07:13;;;;;;;;;0.67;0.67;;;;;18.01;100.00;97152.41;4979588;28;103402;-72
2023/08/01 15:09:44;;;;;;;;;0.67;0.00;;;;;17.97;100.00;97161.47;4990716;28;102198;-72
2023/08/01 15:12:11;;;;;;;;;2.00;1.67;;;;;17.67;100.00;97127.75;4988793;28;102134;-73
2023/08/01 15:14:39;;;;;;;;;1.00;1.00;;;;;17.57;100.00;97114.09;4988556;28;104035;-72
2023/08/01 15:17:06;;;;;;;;;2.33;1.00;;;;;17.77;100.00;97143.28;4988679;28;102061;-72
2023/08/01 15:19:33;;;;;;;;;1.33;1.33;;;;;17.83;100.00;97164.84;4989286;28;103208;-72
2023/08/01 15:22:00;;;;;;;;;1.00;1.00;;;;;17.75;100.00;97154.50;4973597;28;102400;-72
2023/08/01 15:24:29;;;;;;;;;1.00;1.00;;;;;17.84;100.00;97158.28;4986633;28;104413;-72
2023/08/01 15:26:56;;;;;;;;;1.00;1.00;;;;;17.80;100.00;97150.91;4986389;28;102628;-72
2023/08/01 15:29:23;;;;;;;;;1.00;1.00;;;;;17.87;100.00;97167.03;4963276;28;103149;-72
2023/08/01 15:31:50;;;;;;;;;0.67;0.67;;;;;17.91;100.00;97165.34;4995625;28;103110;-72
2023/08/01 15:34:22;;;;;;;;;1.00;1.00;;;;;17.82;100.00;97162.41;4987472;28;103561;-72
2023/08/01 15:36:49;;;;;;;;;1.00;1.00;;;;;17.81;100.00;97169.78;4979071;28;102379;-72
2023/08/01 15:39:16;;;;;;;;;0.00;0.00;;;;;17.89;100.00;97179.31;4991530;28;102161;-72
2023/08/01 15:41:43;;;;;;;;;1.00;1.00;;;;;17.82;100.00;97167.88;4996325;28;102349;-72
2023/08/01 15:44:10;;;;;;;;;1.33;1.00;;;;;17.84;100.00;97161.00;4984421;28;103996;-72
2023/08/01 15:46:38;;;;;;;;;0.33;0.33;;;;;17.70;100.00;97148.22;4987345;28;103119;-72
2023/08/01 15:49:07;;;;;;;;;1.00;1.00;;;;;17.80;100.00;97175.53;4973436;28;103223;-72
2023/08/01 15:51:34;;;;;;;;;0.00;0.00;;;;;17.75;100.00;97151.75;4991362;28;102487;-73
2023/08/01 15:54:03;;;;;;;;;0.67;0.67;;;;;17.79;100.00;97163.75;4997608;28;104012;-72
2023/08/01 15:56:30;;;;;;;;;0.67;0.67;;;;;17.80;100.00;97157.19;4973551;28;102131;-72
2023/08/01 15:58:59;;;;;;;;;0.00;0.00;;;;;17.88;100.00;97163.19;4993099;28;102282;-72
2023/08/01 16:01:26;;;;;;;;;0.00;0.00;;;;;17.84;100.00;97162.91;4993913;28;102250;-72
2023/08/01 16:03:53;;;;;;;;;0.33;0.00;;;;;17.91;100.00;97173.56;4977909;28;103819;-70
2023/08/01 16:06:20;;;;;;;;;0.00;0.00;;;;;17.90;100.00;97180.94;4979058;28;102634;-72
2023/08/01 16:08:47;;;;;;;;;1.00;1.00;;;;;17.90;100.00;97172.75;4989852;28;102182;-72
2023/08/01 16:11:14;;;;;;;;;1.00;1.00;;;;;17.88;100.00;97168.66;4989949;28;102127;-73
2023/08/01 16:13:41;;;;;;;;;1.33;1.00;;;;;17.89;100.00;97173.81;4989174;28;103736;-72
2023/08/01 16:16:09;;;;;;;;;0.00;0.00;;;;;17.89;100.00;97175.75;4975897;28;103716;-71
2023/08/01 16:18:36;;;;;;;;;1.33;1.00;;;;;17.79;100.00;97161.03;4987119;28;102002;-72
2023/08/01 16:21:03;;;;;;;;;0.00;0.00;;;;;17.84;100.00;97180.16;4994630;28;102406;-72
2023/08/01 16:23:30;;;;;;;;;2.00;0.67;;;;;17.66;100.00;97172.59;4981500;28;103876;-72
2023/08/01 16:25:57;;;;;;;;;2.33;2.00;;;;;17.67;100.00;97173.41;4997666;28;102301;-72
2023/08/01 16:28:26;;;;;;;;;1.00;1.00;;;;;17.73;100.00;97183.22;4990351;28;102268;-72
2023/08/01 16:30:53;;;;;;;;;1.67;1.67;;;;;17.70;100.00;97176.38;4971807;28;102633;-72
2023/08/01 16:33:21;;;;;;;;;1.33;1.33;;;;;17.60;100.00;97167.44;4994391;28;103462;-73
2023/08/01 16:35:48;;;;;;;;;1.00;1.00;;;;;17.60;100.00;97167.44;4970019;28;102386;-73
2023/08/01 16:38:15;;;;;;;;;2.00;1.00;;;;;17.60;100.00;97167.44;4974222;28;102419;-72
2023/08/01 16:40:43;;;;;;;;;1.00;1.00;;;;;17.60;100.00;97167.44;4996784;28;102915;-72
2023/08/01 16:43:10;;;;;;;;;1.00;1.00;;;;;17.62;100.00;97176.97;4991431;28;104007;-72
2023/08/01 16:45:37;;;;;;;;;1.00;0.33;;;;;17.72;100.00;97182.41;4994624;28;102149;-72
2023/08/01 16:48:05;;;;;;;;;1.00;1.00;;;;;17.72;100.00;97192.53;4990956;28;102872;-73
2023/08/01 16:50:32;;;;;;;;;0.00;0.00;;;;;17.65;100.00;97192.81;4979534;28;102311;-72
2023/08/01 16:52:59;;;;;;;;;0.67;0.67;;;;;17.67;100.00;97190.63;4990801;28;104296;-73
2023/08/01 16:55:26;;;;;;;;;0.00;0.00;;;;;17.66;100.00;97189.00;4994438;28;102246;-71
2023/08/01 16:57:53;;;;;;;;;0.33;0.33;;;;;17.57;100.00;97189.81;4996049;28;102419;-72
2023/08/01 17:00:20;;;;;;;;;0.00;0.00;;;;;17.55;100.00;97189.28;4990461;28;103161;-72
2023/08/01 17:02:47;;;;;;;;;0.33;0.00;;;;;17.63;100.00;97195.03;4989974;28;104080;-72
2023/08/01 17:05:14;;;;;;;;;0.33;0.00;;;;;17.63;100.00;97203.22;4998323;28;102224;-72
2023/08/01 17:07:41;;;;;;;;;1.00;0.00;;;;;17.63;100.00;97199.66;4991337;28;102414;-71
2023/08/01 17:10:11;;;;;;;;;0.33;0.33;;;;;17.63;100.00;97200.50;4972652;28;103380;-72
2023/08/01 17:12:38;;;;;;;;;1.00;0.00;;;;;17.63;100.00;97210.59;4989494;28;103010;-72
2023/08/01 17:15:06;;;;;;;;;1.00;0.00;;;;;17.56;100.00;97189.00;4993005;28;102091;-71
2023/08/01 17:17:33;;;;;;;;;0.00;0.00;;;;;17.55;100.00;97192.84;4994167;28;102293;-72
2023/08/01 17:20:03;;;;;;;;;1.00;1.00;;;;;17.51;100.00;97201.88;4998419;28;102326;-72
2023/08/01 17:22:30;;;;;;;;;1.00;1.00;;;;;17.48;100.00;97214.19;4988550;28;103756;-72
2023/08/01 17:24:57;;;;;;;;;1.00;0.00;;;;;17.47;100.00;97198.88;4988934;28;103235;-72
2023/08/01 17:27:25;;;;;;;;;0.00;0.00;;;;;17.48;100.00;97191.50;4987818;28;103082;-73
2023/08/01 17:29:53;;;;;;;;;0.67;0.33;;;;;17.53;100.00;97200.50;4980376;28;102428;-73
2023/08/01 17:32:20;;;;;;;;;0.00;0.00;;;;;17.52;100.00;97190.66;4983927;28;103996;-73
2023/08/01 17:34:47;;;;;;;;;0.00;0.00;;;;;17.40;100.00;97179.22;4979905;28;103531;-73
2023/08/01 17:37:14;;;;;;;;;0.00;0.00;;;;;17.52;100.00;97193.38;4983388;28;101909;-73
2023/08/01 17:39:41;;;;;;;;;0.00;0.00;;;;;17.47;100.00;97195.34;4989384;28;102339;-73
2023/08/01 17:42:08;;;;;;;;;0.00;0.00;;;;;17.24;100.00;97159.38;4972498;28;105012;-72
2023/08/01 17:44:37;;;;;;;;;0.00;0.00;;;;;17.45;100.00;97187.41;4906318;28;103287;-71
2023/08/01 17:47:07;;;;;;;;;1.00;1.00;;;;;17.50;100.00;97189.31;4914983;28;103628;-73
2023/08/01 17:49:34;;;;;;;;;0.00;0.00;;;;;17.44;100.00;97191.25;4942151;28;103591;-72
2023/08/01 17:52:02;;;;;;;;;1.00;1.00;;;;;17.31;100.00;97167.25;4924180;28;103826;-74
2023/08/01 17:54:29;;;;;;;;;0.33;0.00;;;;;17.39;100.00;97180.31;4907290;28;103473;-72
2023/08/01 17:56:56;;;;;;;;;0.33;0.33;;;;;17.36;100.00;97178.16;4898049;28;103522;-73
2023/08/01 17:59:23;;;;;;;;;0.00;0.00;;;;;17.33;100.00;97170.53;4913461;28;103417;-72
2023/08/01 18:01:52;;;;;;;;;0.00;0.00;;;;;17.33;100.00;97176.81;4904739;28;105249;-72
2023/08/01 18:04:20;;;;;;;;;0.00;0.00;;;;;17.39;100.00;97183.06;4907456;28;103918;-72
2023/08/01 18:06:48;;;;;;;;;0.00;0.00;;;;;17.34;100.00;97174.88;4941477;28;103536;-73
2023/08/01 18:09:18;;;;;;;;;0.00;0.00;;;;;17.34;100.00;97178.44;4924980;28;103483;-73
2023/08/01 18:11:46;;;;;;;;;0.00;0.00;;;;;17.39;100.00;97194.81;4907297;28;104049;-73
2023/08/01 18:14:13;;;;;;;;;0.00;0.00;;;;;17.41;100.00;97191.81;4899284;28;103160;-73
2023/08/01 18:16:40;;;;;;;;;0.00;0.00;;;;;17.33;100.00;97168.63;4907918;28;103598;-72
2023/08/01 18:19:08;;;;;;;;;0.00;0.00;;;;;17.41;100.00;97191.81;4908130;28;103272;-73
2023/08/01 18:21:36;;;;;;;;;1.00;0.00;;;;;17.39;100.00;97192.06;4909547;28;104648;-73
2023/08/01 18:24:03;;;;;;;;;0.00;0.00;;;;;17.36;100.00;97183.63;4958012;28;103174;-74
2023/08/01 18:26:30;;;;;;;;;0.00;0.00;;;;;17.09;100.00;97153.94;4905837;28;103260;-74
2023/08/01 18:28:58;;;;;;;;;1.00;0.00;;;;;17.35;100.00;97190.19;4915055;28;103487;-74
2023/08/01 18:31:25;;;;;;;;;0.00;0.00;;;;;17.21;100.00;97178.19;4910977;28;105506;-72
2023/08/01 18:33:52;;;;;;;;;0.00;0.00;;;;;17.31;100.00;97197.31;4910732;28;103425;-73
2023/08/01 18:36:23;;;;;;;;;0.00;0.00;;;;;17.34;100.00;97208.47;4956711;28;102828;-73
2023/08/01 18:38:52;;;;;;;;;0.00;0.00;;;;;17.28;100.00;97195.97;4985993;28;102796;-72
2023/08/01 18:41:19;;;;;;;;;0.00;0.00;;;;;17.31;100.00;97200.03;4979983;28;104058;-73
2023/08/01 18:43:47;;;;;;;;;0.00;0.00;;;;;17.25;100.00;97196.50;4995943;28;102868;-73
2023/08/01 18:46:14;;;;;;;;;0.00;0.00;;;;;17.24;100.00;97203.06;4982615;28;102287;-74
2023/08/01 18:48:42;;;;;;;;;0.00;0.00;;;;;17.25;100.00;97209.34;4979045;28;102116;-74
2023/08/01 18:51:14;;;;;;;;;0.00;0.00;;;;;17.24;100.00;97221.38;4989844;28;104167;-74
2023/08/01 18:53:41;;;;;;;;;1.00;0.00;;;;;17.21;100.00;97211.81;4992724;28;103348;-74
2023/08/01 18:56:12;;;;;;;;;0.00;0.00;;;;;17.09;100.00;97200.38;4994034;28;102185;-74
2023/08/01 18:58:42;;;;;;;;;0.33;0.33;;;;;17.13;100.00;97215.09;4989793;28;102088;-74
2023/08/01 19:01:14;;;;;;;;;0.00;0.00;;;;;17.16;100.00;97211.81;4977221;28;102865;-72
2023/08/01 19:03:45;;;;;;;;;1.00;1.00;;;;;17.12;100.00;97215.38;4992258;28;102243;-73
2023/08/01 19:06:15;;;;;;;;;1.00;0.00;;;;;17.01;100.00;97197.38;4990748;28;102374;-73
2023/08/01 19:08:46;;;;;;;;;0.67;0.00;;;;;17.16;100.00;97219.19;4988011;28;101991;-73
2023/08/01 19:11:13;;;;;;;;;0.00;0.00;;;;;16.95;100.00;97194.66;4990234;28;104004;-73
2023/08/01 19:13:41;;;;;;;;;1.00;0.67;;;;;17.05;100.00;97206.66;4989121;28;102291;-74
2023/08/01 19:16:09;;;;;;;;;1.00;1.00;;;;;17.08;100.00;97209.66;4985051;28;103482;-74
2023/08/01 19:18:36;;;;;;;;;0.33;0.33;;;;;17.05;100.00;97206.66;4993275;28;102464;-72
2023/08/01 19:21:03;;;;;;;;;1.67;1.00;;;;;17.07;100.00;97223.56;4957979;28;104036;-73
2023/08/01 19:23:30;;;;;;;;;1.33;1.33;;;;;17.06;100.00;97216.50;4988243;28;102482;-75
2023/08/01 19:26:09;;;;;;;;;2.00;2.00;;;;;16.95;100.00;97197.41;4983159;28;104134;-74
2023/08/01 19:28:37;;;;;;;;;1.00;1.00;;;;;16.89;100.00;97200.41;4970834;28;102208;-74
2023/08/01 19:31:04;;;;;;;;;0.33;0.33;;;;;17.05;100.00;97232.06;4987084;28;104070;-74
2023/08/01 19:33:31;;;;;;;;;1.00;1.00;;;;;17.06;100.00;97238.34;4995553;28;102224;-74
2023/08/01 19:35:58;;;;;;;;;1.00;1.00;;;;;16.79;100.00;97203.16;4996706;28;102042;-73
2023/08/01 19:38:25;;;;;;;;;1.67;1.00;;;;;16.94;100.00;97238.63;4963021;28;102368;-74
2023/08/01 19:40:57;;;;;;;;;2.00;1.00;;;;;16.96;100.00;97247.38;4993155;28;103007;-73
2023/08/01 19:43:24;;;;;;;;;0.00;0.00;;;;;16.93;100.00;97245.19;4991769;28;102109;-73
2023/08/01 19:45:55;;;;;;;;;1.67;1.00;;;;;16.86;100.00;97229.09;4988838;28;102276;-73
2023/08/01 19:48:22;;;;;;;;;0.00;0.00;;;;;16.95;100.00;97240.25;4978814;28;102586;-73
2023/08/01 19:50:53;;;;;;;;;0.67;0.67;;;;;16.85;100.00;97234.81;4968315;28;103803;-75
2023/08/01 19:53:23;;;;;;;;;0.00;0.00;;;;;16.98;100.00;97252.53;4971745;28;103263;-74
2023/08/01 19:55:52;;;;;;;;;2.00;0.00;;;;;17.03;100.00;97258.00;4988503;28;102265;-74
2023/08/01 19:58:19;;;;;;;;;0.00;0.00;;;;;17.04;100.00;97252.28;4994022;28;102292;-75
2023/08/01 20:00:48;;;;;;;;;1.00;0.00;;;;;17.03;100.00;97245.16;4976375;28;104277;-73
2023/08/01 20:03:16;;;;;;;;;0.00;0.00;;;;;16.97;100.00;97229.91;4971547;28;102010;-74
2023/08/01 20:05:44;;;;;;;;;2.33;2.00;;;;;16.95;100.00;97229.34;4993837;28;102322;-74
2023/08/01 20:08:11;;;;;;;;;0.00;0.00;;;;;16.78;100.00;97191.41;4995895;28;102504;-74
2023/08/01 20:10:38;;;;;;;;;1.00;1.00;;;;;16.87;100.00;97218.97;4991911;28;104226;-74
2023/08/01 20:13:05;;;;;;;;;0.00;0.00;;;;;16.86;100.00;97226.34;4988882;28;102695;-74
2023/08/01 20:15:33;;;;;;;;;0.00;0.00;;;;;16.85;100.00;97221.16;4988685;28;102373;-74
2023/08/01 20:18:00;;;;;;;;;0.33;0.33;;;;;16.57;100.00;97187.03;4987144;28;103096;-74
2023/08/01 20:20:27;;;;;;;;;1.00;0.67;;;;;16.77;100.00;97218.97;4987664;28;104206;-74
2023/08/01 20:22:54;;;;;;;;;0.33;0.00;;;;;16.76;100.00;97220.88;4991928;28;103498;-74
2023/08/01 20:25:21;;;;;;;;;0.00;0.00;;;;;16.77;100.00;97229.91;4995082;28;102337;-74
2023/08/01 20:27:48;;;;;;;;;0.00;0.00;;;;;16.74;100.00;97214.09;4976840;28;103588;-73
2023/08/01 20:30:15;;;;;;;;;0.00;0.00;;;;;16.63;100.00;97183.25;4973584;28;103564;-74
2023/08/01 20:32:44;;;;;;;;;0.00;0.00;;;;;16.73;100.00;97191.41;4995557;28;102227;-74
2023/08/01 20:35:21;;;;;;;;;0.00;0.00;;;;;16.69;100.00;97184.88;4992645;28;102299;-73
2023/08/01 20:38:15;;;;;;;;;0.00;0.00;;;;;16.77;100.00;97208.06;4982158;28;102083;-73
2023/08/01 20:41:14;;;;;;;;;0.00;0.00;;;;;16.74;100.00;97209.44;4966564;28;105315;-74
2023/08/01 20:43:41;;;;;;;;;0.00;0.00;;;;;16.74;100.00;97217.63;4973733;28;102186;-74
2023/08/01 20:46:09;;;;;;;;;0.33;0.00;;;;;16.69;100.00;97200.44;4975465;28;101843;-74
2023/08/01 20:48:47;;;;;;;;;0.00;0.00;;;;;16.61;100.00;97193.63;4979917;28;102510;-74
2023/08/01 20:51:14;;;;;;;;;0.00;0.00;;;;;16.73;100.00;97217.91;4957998;28;104205;-75
2023/08/01 20:53:41;;;;;;;;;0.00;0.00;;;;;16.69;100.00;97219.53;4956848;28;102117;-75
2023/08/01 20:56:12;;;;;;;;;0.00;0.00;;;;;16.75;100.00;97234.84;4953767;28;102042;-75
2023/08/01 20:58:45;;;;;;;;;0.00;0.00;;;;;16.75;100.00;97238.34;4941131;28;102186;-74
2023/08/01 21:01:12;;;;;;;;;1.00;1.00;;;;;16.59;100.00;97223.09;4972354;28;104092;-73
2023/08/01 21:03:39;;;;;;;;;1.00;1.00;;;;;16.62;100.00;97228.00;4973048;28;102045;-74
2023/08/01 21:06:13;;;;;;;;;0.67;0.00;;;;;16.66;100.00;97226.34;4968969;28;102074;-74
2023/08/01 21:08:55;;;;;;;;;0.00;0.00;;;;;16.64;100.00;97209.44;4972497;28;102293;-74
2023/08/01 21:11:31;;;;;;;;;0.00;0.00;;;;;16.60;100.00;97219.28;4973123;28;104219;-74
2023/08/01 21:13:58;;;;;;;;;0.00;0.00;;;;;16.65;100.00;97230.19;4972062;28;102861;-74
2023/08/01 21:16:26;;;;;;;;;0.00;0.00;;;;;16.62;100.00;97236.19;4971842;28;102152;-74
2023/08/01 21:18:53;;;;;;;;;0.00;0.00;;;;;16.45;100.00;97221.94;4972671;28;102204;-74
2023/08/01 21:21:20;;;;;;;;;0.00;0.00;;;;;16.53;100.00;97237.78;4976764;28;104092;-74
2023/08/01 21:23:47;;;;;;;;;1.00;0.00;;;;;16.58;100.00;97247.91;4970885;28;102105;-74
2023/08/01 21:26:14;;;;;;;;;0.00;0.00;;;;;16.47;100.00;97219.78;4977457;28;102289;-74
2023/08/01 21:28:41;;;;;;;;;1.67;1.67;;;;;15.92;100.00;97179.63;4970159;28;102432;-74
2023/08/01 21:31:08;;;;;;;;;1.00;0.00;;;;;15.70;100.00;97155.31;4968775;28;103297;-74
2023/08/01 21:33:39;;;;;;;;;2.00;2.00;;;;;16.47;100.00;97275.19;4973136;28;102310;-74
2023/08/01 21:36:06;;;;;;;;;1.00;1.00;;;;;15.88;100.00;97173.06;4972747;28;102405;-74
2023/08/01 21:38:34;;;;;;;;;4.33;3.33;;;;;16.24;100.00;97240.22;4986336;28;102378;-74
2023/08/01 21:41:02;;;;;;;;;6.33;5.33;;;;;16.22;100.00;97241.56;4996665;28;105791;-74
2023/08/01 21:43:29;;;;;;;;;3.00;3.00;;;;;16.19;100.00;97233.94;4993858;28;102410;-74
2023/08/01 21:46:00;;;;;;;;;2.00;2.00;;;;;16.24;100.00;97253.84;4996989;28;102270;-74
2023/08/01 21:48:28;;;;;;;;;3.33;3.00;;;;;16.20;100.00;97244.59;4988424;28;102635;-75
2023/08/01 21:50:55;;;;;;;;;2.33;2.00;;;;;16.28;100.00;97259.59;4974787;28;104107;-75
2023/08/01 21:53:22;;;;;;;;;3.67;3.67;;;;;16.06;100.00;97214.28;4984526;28;102212;-75
2023/08/01 21:56:09;;;;;;;;;3.33;3.00;;;;;16.29;100.00;97250.31;4974619;28;102340;-75
2023/08/01 21:58:49;;;;;;;;;3.00;2.00;;;;;16.07;100.00;97223.28;4990526;28;102315;-74
2023/08/01 22:01:22;;;;;;;;;3.67;2.00;;;;;16.22;100.00;97241.56;4985691;28;104054;-75
2023/08/01 22:03:49;;;;;;;;;2.67;2.00;;;;;16.25;100.00;97258.22;4987395;28;102301;-74
2023/08/01 22:06:27;;;;;;;;;1.00;1.00;;;;;16.20;100.00;97247.31;4985693;28;102053;-75
2023/08/01 22:08:57;;;;;;;;;1.33;1.00;;;;;16.25;100.00;97250.06;4988925;28;102715;-75
2023/08/01 22:11:24;;;;;;;;;3.33;2.00;;;;;16.29;100.00;97261.22;4986485;28;103857;-74
2023/08/01 22:13:56;;;;;;;;;1.33;1.33;;;;;16.30;100.00;97260.16;4981468;28;102100;-75
2023/08/01 22:16:39;;;;;;;;;1.00;1.00;;;;;16.35;100.00;97257.41;4988023;28;102046;-75
2023/08/01 22:19:07;;;;;;;;;2.33;1.33;;;;;16.31;100.00;97251.69;4975682;28;102205;-75
2023/08/01 22:21:35;;;;;;;;;0.67;0.67;;;;;16.29;100.00;97250.31;4996031;28;103592;-74
2023/08/01 22:24:02;;;;;;;;;1.00;1.00;;;;;16.37;100.00;97255.25;4980632;28;102350;-75
2023/08/01 22:26:35;;;;;;;;;1.00;0.00;;;;;16.19;100.00;97223.03;4978553;28;102800;-75
2023/08/01 22:29:03;;;;;;;;;1.33;0.00;;;;;16.32;100.00;97245.13;4977571;28;102635;-74
2023/08/01 22:31:33;;;;;;;;;0.00;0.00;;;;;16.23;100.00;97241.31;4981519;28;104143;-75
2023/08/01 22:34:00;;;;;;;;;1.00;1.00;;;;;16.27;100.00;97247.03;4980547;28;102250;-75
2023/08/01 22:36:27;;;;;;;;;1.00;1.00;;;;;16.25;100.00;97249.22;4994033;28;102336;-75
2023/08/01 22:38:54;;;;;;;;;1.33;1.00;;;;;16.33;100.00;97267.78;4997475;28;102503;-73
2023/08/01 22:41:21;;;;;;;;;1.00;1.00;;;;;16.37;100.00;97252.50;4975675;28;103114;-73
2023/08/01 22:43:49;;;;;;;;;1.00;1.00;;;;;16.31;100.00;97245.41;4991429;28;102217;-73
2023/08/01 22:46:16;;;;;;;;;1.00;1.00;;;;;16.31;100.00;97248.94;4983215;28;102184;-74
2023/08/01 22:48:46;;;;;;;;;1.00;1.00;;;;;16.26;100.00;97242.66;4980249;28;102386;-73
2023/08/01 22:51:16;;;;;;;;;1.00;1.00;;;;;16.29;100.00;97245.69;4985870;28;103794;-74
2023/08/01 22:53:48;;;;;;;;;1.00;1.00;;;;;16.36;100.00;97262.59;4998707;28;102001;-74
2023/08/01 22:56:17;;;;;;;;;2.33;1.00;;;;;16.27;100.00;97249.75;4980335;28;102121;-74
2023/08/01 22:58:44;;;;;;;;;0.00;0.00;;;;;16.32;100.00;97255.22;4999156;28;102853;-73
2023/08/01 23:01:13;;;;;;;;;2.00;1.00;;;;;16.03;100.00;97214.81;4995572;28;103230;-74
2023/08/01 23:03:42;;;;;;;;;3.00;3.00;;;;;16.10;100.00;97230.09;4994463;28;102424;-73
2023/08/01 23:06:10;;;;;;;;;2.00;2.00;;;;;16.20;100.00;97243.75;4977651;28;102291;-74
2023/08/01 23:08:38;;;;;;;;;1.00;1.00;;;;;16.19;100.00;97233.94;4975273;28;102496;-74
2023/08/01 23:11:05;;;;;;;;;1.00;1.00;;;;;16.21;100.00;97248.13;4977405;28;103079;-75
2023/08/01 23:13:32;;;;;;;;;1.00;1.00;;;;;16.22;100.00;97255.19;4994056;28;102426;-75
2023/08/01 23:16:16;;;;;;;;;1.33;1.33;;;;;16.27;100.00;97252.50;4991928;28;101913;-75
2023/08/01 23:18:44;;;;;;;;;1.00;1.00;;;;;16.25;100.00;97260.13;4991175;28;102170;-75
2023/08/01 23:21:23;;;;;;;;;0.00;0.00;;;;;16.26;100.00;97262.56;4989824;28;104134;-74
2023/08/01 23:23:57;;;;;;;;;1.00;1.00;;;;;16.31;100.00;97267.22;4994265;28;102138;-74
2023/08/01 23:26:29;;;;;;;;;1.67;0.67;;;;;16.20;100.00;97273.75;4995773;28;102018;-75
2023/08/01 23:28:56;;;;;;;;;1.00;1.00;;;;;16.10;100.00;97246.47;4996868;28;102265;-75
2023/08/01 23:31:26;;;;;;;;;2.00;1.00;;;;;16.22;100.00;97266.09;4990973;28;104160;-75
2023/08/01 23:33:55;;;;;;;;;2.67;1.67;;;;;16.14;100.00;97258.47;4970382;28;102927;-74
2023/08/01 23:36:22;;;;;;;;;1.00;1.00;;;;;16.19;100.00;97262.03;4988563;28;102374;-74
2023/08/01 23:38:49;;;;;;;;;1.00;1.00;;;;;16.20;100.00;97262.84;4974930;28;102433;-74
2023/08/01 23:41:16;;;;;;;;;1.00;1.00;;;;;16.03;100.00;97233.88;4995488;28;104216;-75
2023/08/01 23:43:43;;;;;;;;;0.67;0.67;;;;;16.04;100.00;97226.53;4979873;28;102071;-75
2023/08/01 23:46:10;;;;;;;;;0.33;0.33;;;;;16.20;100.00;97251.94;4976419;28;103101;-75
2023/08/01 23:48:37;;;;;;;;;0.00;0.00;;;;;16.23;100.00;97256.84;4991009;28;102414;-74
2023/08/01 23:51:04;;;;;;;;;2.00;1.00;;;;;16.18;100.00;97249.47;4990963;28;104094;-74
2023/08/01 23:53:32;;;;;;;;;1.00;1.00;;;;;16.24;100.00;97270.22;4992259;28;101954;-74
2023/08/01 23:56:00;;;;;;;;;3.00;2.00;;;;;16.07;100.00;97236.91;4991556;28;102259;-75
2023/08/01 23:58:28;;;;;;;;;1.00;0.00;;;;;16.24;100.00;97270.22;4998627;28;102194;-74
